Hauptseite
METAR-TAF:

METAR-TAF

Flughäfen :

Flughafen Luxemburg

Luxemburg, Luxemburg

Breite: 49-37N, Länge: 006-13E, Höhe: 376 m

Beobachtung

Neuester Wetterbericht von vor 42 Minuten, um 12:50 UTC
Wind 12 kt aus West
Temperatur 27°C
Luftfeuchtigkeit 39%
Luftdruck 1016 hPa
Sichtweite 10 km oder mehr
Aufgelockert bewölkt in der Höhe von 7600 ft, Towering cumulus.

METAR: ELLX 171250Z 28012KT 9999 SCT076TCU 27/12 Q1016 NOSIG

Zeit: 15:32 (13:32 UTC)

Prognose

Neuester Wetterbericht von vor 2 Stunden und 32 Minuten, um 11:00 UTC
Gültige Prognose vom 17 um 12 UTC bis 18 um 18 UTC
Wind 7 kt aus Nordwest
Sichtweite 10 km oder mehr
keine Wolken unter 1500 m und keine Kumulonimbus oder Gewitterwolken
Zeitweise
vom 17 um 12 UTC bis 17 um 17 UTC
Sichtweite: 8000 m
Aufgelockert bewölkt in der Höhe von 4000 ft, Towering cumulus.
Regenschauer

TAF: ELLX 171100Z 1712/1818 32007KT CAVOK TEMPO 1712/1717 8000 -SHRA SCT040TCU

Wetterbeobachtungen und Prognosen von mehr als 4000 Flughäfen (METAR und TAF Bericht).

Die verfügbaren Stationen werden durch gelbe und rote Markierungen auf der Karte dargestellt.

Führen Sie die Maus auf sie, um den Namen der Station zu sehen.

Darauf klicken, um die Beobachtung von Wetterbeobachtungen und Prognosen zu sehen.

Um die Karte zu ändern : klicken Sie auf den grünen Tasten mit einem schwarzen Kreuz Zum Vergrößern, auf den grünen Button mit einem Gedankenstrich zu verkleinern, oder auf die grünen Pfeile für benachbarte Karten.


METAR-TAF: